sensor_id;sensor_type;location;lat;lon;timestamp;P1;durP1;ratioP1;P2;durP2;ratioP2
21886;SDS011;11108;49.988;8.182;2023-07-31T00:01:14;0.80;;;0.80;;
21886;SDS011;11108;49.988;8.182;2023-07-31T00:03:39;1.00;;;1.00;;
21886;SDS011;11108;49.988;8.182;2023-07-31T00:06:04;1.20;;;1.10;;
21886;SDS011;11108;49.988;8.182;2023-07-31T00:08:29;1.20;;;1.10;;
21886;SDS011;11108;49.988;8.182;2023-07-31T00:10:54;1.43;;;1.30;;
21886;SDS011;11108;49.988;8.182;2023-07-31T00:13:20;1.55;;;1.45;;
21886;SDS011;11108;49.988;8.182;2023-07-31T00:15:45;2.20;;;1.30;;
21886;SDS011;11108;49.988;8.182;2023-07-31T00:18:10;1.20;;;1.10;;
21886;SDS011;11108;49.988;8.182;2023-07-31T00:20:35;0.97;;;0.97;;
21886;SDS011;11108;49.988;8.182;2023-07-31T00:23:00;1.50;;;1.30;;
21886;SDS011;11108;49.988;8.182;2023-07-31T00:25:26;1.10;;;1.00;;
21886;SDS011;11108;49.988;8.182;2023-07-31T00:27:51;1.30;;;1.20;;
21886;SDS011;11108;49.988;8.182;2023-07-31T00:30:16;1.30;;;1.20;;
21886;SDS011;11108;49.988;8.182;2023-07-31T00:32:41;1.90;;;1.30;;
21886;SDS011;11108;49.988;8.182;2023-07-31T00:35:06;1.43;;;1.33;;
21886;SDS011;11108;49.988;8.182;2023-07-31T00:37:32;1.70;;;1.10;;
21886;SDS011;11108;49.988;8.182;2023-07-31T00:39:57;1.43;;;1.30;;
21886;SDS011;11108;49.988;8.182;2023-07-31T00:42:22;1.33;;;1.23;;
21886;SDS011;11108;49.988;8.182;2023-07-31T00:44:47;1.10;;;1.10;;
21886;SDS011;11108;49.988;8.182;2023-07-31T00:47:13;1.13;;;1.10;;
21886;SDS011;11108;49.988;8.182;2023-07-31T00:49:38;1.30;;;1.20;;
21886;SDS011;11108;49.988;8.182;2023-07-31T00:52:03;1.20;;;1.10;;
21886;SDS011;11108;49.988;8.182;2023-07-31T00:54:28;1.50;;;1.40;;
21886;SDS011;11108;49.988;8.182;2023-07-31T00:56:54;2.60;;;1.23;;
21886;SDS011;11108;49.988;8.182;2023-07-31T00:59:19;3.07;;;1.30;;
21886;SDS011;11108;49.988;8.182;2023-07-31T01:01:44;2.40;;;1.60;;
21886;SDS011;11108;49.988;8.182;2023-07-31T01:04:10;2.78;;;1.33;;
21886;SDS011;11108;49.988;8.182;2023-07-31T01:06:37;2.17;;;1.35;;
21886;SDS011;11108;49.988;8.182;2023-07-31T01:11:52;1.73;;;1.30;;
21886;SDS011;11108;49.988;8.182;2023-07-31T01:14:18;1.37;;;1.00;;
21886;SDS011;11108;49.988;8.182;2023-07-31T01:16:43;1.60;;;1.50;;
21886;SDS011;11108;49.988;8.182;2023-07-31T01:19:08;1.40;;;1.40;;
21886;SDS011;11108;49.988;8.182;2023-07-31T01:26:40;1.33;;;1.23;;
21886;SDS011;11108;49.988;8.182;2023-07-31T01:31:36;1.63;;;1.20;;
21886;SDS011;11108;49.988;8.182;2023-07-31T01:34:01;1.52;;;1.40;;
21886;SDS011;11108;49.988;8.182;2023-07-31T01:36:27;1.40;;;1.30;;
21886;SDS011;11108;49.988;8.182;2023-07-31T01:38:57;1.50;;;1.23;;
21886;SDS011;11108;49.988;8.182;2023-07-31T01:41:22;1.37;;;1.10;;
21886;SDS011;11108;49.988;8.182;2023-07-31T01:43:47;1.37;;;1.07;;
21886;SDS011;11108;49.988;8.182;2023-07-31T01:46:13;2.20;;;1.53;;
21886;SDS011;11108;49.988;8.182;2023-07-31T01:48:38;1.40;;;1.30;;
21886;SDS011;11108;49.988;8.182;2023-07-31T01:51:03;1.45;;;1.35;;
21886;SDS011;11108;49.988;8.182;2023-07-31T01:53:29;1.15;;;1.10;;
21886;SDS011;11108;49.988;8.182;2023-07-31T01:55:54;1.40;;;1.30;;
21886;SDS011;11108;49.988;8.182;2023-07-31T01:58:20;1.13;;;1.00;;
21886;SDS011;11108;49.988;8.182;2023-07-31T02:00:45;1.30;;;1.20;;
21886;SDS011;11108;49.988;8.182;2023-07-31T02:03:11;1.50;;;1.40;;
21886;SDS011;11108;49.988;8.182;2023-07-31T02:05:36;2.57;;;1.43;;
21886;SDS011;11108;49.988;8.182;2023-07-31T02:08:01;1.33;;;1.20;;
21886;SDS011;11108;49.988;8.182;2023-07-31T02:10:27;1.10;;;1.10;;
21886;SDS011;11108;49.988;8.182;2023-07-31T02:12:52;1.10;;;1.10;;
21886;SDS011;11108;49.988;8.182;2023-07-31T02:15:17;1.10;;;1.10;;
21886;SDS011;11108;49.988;8.182;2023-07-31T02:17:43;1.60;;;1.50;;
21886;SDS011;11108;49.988;8.182;2023-07-31T02:20:08;1.60;;;1.50;;
21886;SDS011;11108;49.988;8.182;2023-07-31T02:22:34;2.10;;;1.40;;
21886;SDS011;11108;49.988;8.182;2023-07-31T02:24:59;1.60;;;1.50;;
21886;SDS011;11108;49.988;8.182;2023-07-31T02:27:24;1.50;;;1.40;;
21886;SDS011;11108;49.988;8.182;2023-07-31T02:29:52;1.93;;;1.50;;
21886;SDS011;11108;49.988;8.182;2023-07-31T02:32:17;1.50;;;1.40;;
21886;SDS011;11108;49.988;8.182;2023-07-31T02:34:42;1.63;;;1.53;;
21886;SDS011;11108;49.988;8.182;2023-07-31T02:37:07;1.27;;;1.20;;
21886;SDS011;11108;49.988;8.182;2023-07-31T02:39:33;1.50;;;1.40;;
21886;SDS011;11108;49.988;8.182;2023-07-31T02:41:58;1.50;;;1.40;;
21886;SDS011;11108;49.988;8.182;2023-07-31T02:44:23;1.77;;;1.50;;
21886;SDS011;11108;49.988;8.182;2023-07-31T02:46:49;1.60;;;1.50;;
21886;SDS011;11108;49.988;8.182;2023-07-31T02:49:14;1.40;;;1.30;;
21886;SDS011;11108;49.988;8.182;2023-07-31T02:51:39;1.63;;;1.53;;
21886;SDS011;11108;49.988;8.182;2023-07-31T02:54:04;1.77;;;1.40;;
21886;SDS011;11108;49.988;8.182;2023-07-31T02:56:29;4.10;;;1.70;;
21886;SDS011;11108;49.988;8.182;2023-07-31T02:58:55;1.60;;;1.50;;
21886;SDS011;11108;49.988;8.182;2023-07-31T03:01:20;1.90;;;1.40;;
21886;SDS011;11108;49.988;8.182;2023-07-31T03:03:45;1.50;;;1.40;;
21886;SDS011;11108;49.988;8.182;2023-07-31T03:06:10;1.83;;;1.40;;
21886;SDS011;11108;49.988;8.182;2023-07-31T03:08:35;1.80;;;1.70;;
21886;SDS011;11108;49.988;8.182;2023-07-31T03:11:01;1.63;;;1.53;;
21886;SDS011;11108;49.988;8.182;2023-07-31T03:13:26;2.37;;;1.80;;
21886;SDS011;11108;49.988;8.182;2023-07-31T03:15:51;1.60;;;1.50;;
21886;SDS011;11108;49.988;8.182;2023-07-31T03:18:16;1.53;;;1.43;;
21886;SDS011;11108;49.988;8.182;2023-07-31T03:20:42;1.40;;;1.30;;
21886;SDS011;11108;49.988;8.182;2023-07-31T03:23:07;2.23;;;1.50;;
21886;SDS011;11108;49.988;8.182;2023-07-31T03:25:32;1.67;;;1.50;;
21886;SDS011;11108;49.988;8.182;2023-07-31T03:27:57;1.40;;;1.30;;
21886;SDS011;11108;49.988;8.182;2023-07-31T03:30:23;1.40;;;1.20;;
21886;SDS011;11108;49.988;8.182;2023-07-31T03:32:48;2.07;;;1.87;;
21886;SDS011;11108;49.988;8.182;2023-07-31T03:35:13;1.67;;;1.57;;
21886;SDS011;11108;49.988;8.182;2023-07-31T03:37:38;1.70;;;1.60;;
21886;SDS011;11108;49.988;8.182;2023-07-31T03:40:04;1.50;;;1.40;;
21886;SDS011;11108;49.988;8.182;2023-07-31T03:42:29;1.60;;;1.50;;
21886;SDS011;11108;49.988;8.182;2023-07-31T03:44:54;1.70;;;1.60;;
21886;SDS011;11108;49.988;8.182;2023-07-31T03:47:19;1.60;;;1.50;;
21886;SDS011;11108;49.988;8.182;2023-07-31T03:49:45;1.30;;;1.20;;
21886;SDS011;11108;49.988;8.182;2023-07-31T03:52:10;1.40;;;1.30;;
21886;SDS011;11108;49.988;8.182;2023-07-31T03:54:35;1.50;;;1.40;;
21886;SDS011;11108;49.988;8.182;2023-07-31T03:57:00;2.03;;;1.60;;
21886;SDS011;11108;49.988;8.182;2023-07-31T03:59:25;3.83;;;1.80;;
21886;SDS011;11108;49.988;8.182;2023-07-31T04:01:51;1.83;;;1.73;;
21886;SDS011;11108;49.988;8.182;2023-07-31T04:04:16;2.00;;;1.47;;
21886;SDS011;11108;49.988;8.182;2023-07-31T04:06:41;1.83;;;1.20;;
21886;SDS011;11108;49.988;8.182;2023-07-31T04:09:06;2.90;;;1.70;;
21886;SDS011;11108;49.988;8.182;2023-07-31T04:11:31;2.03;;;1.50;;
21886;SDS011;11108;49.988;8.182;2023-07-31T04:13:57;1.60;;;1.50;;
21886;SDS011;11108;49.988;8.182;2023-07-31T04:16:22;2.47;;;1.80;;
21886;SDS011;11108;49.988;8.182;2023-07-31T04:18:47;2.97;;;1.50;;
21886;SDS011;11108;49.988;8.182;2023-07-31T04:21:12;1.27;;;1.17;;
21886;SDS011;11108;49.988;8.182;2023-07-31T04:23:37;1.67;;;1.37;;
21886;SDS011;11108;49.988;8.182;2023-07-31T04:26:03;1.77;;;1.67;;
21886;SDS011;11108;49.988;8.182;2023-07-31T04:28:28;1.60;;;1.50;;
21886;SDS011;11108;49.988;8.182;2023-07-31T04:30:53;2.00;;;1.63;;
21886;SDS011;11108;49.988;8.182;2023-07-31T04:33:18;1.67;;;1.57;;
21886;SDS011;11108;49.988;8.182;2023-07-31T04:35:48;1.67;;;1.27;;
21886;SDS011;11108;49.988;8.182;2023-07-31T04:38:16;1.20;;;1.20;;
21886;SDS011;11108;49.988;8.182;2023-07-31T04:40:42;2.03;;;1.63;;
21886;SDS011;11108;49.988;8.182;2023-07-31T04:43:07;1.40;;;1.30;;
21886;SDS011;11108;49.988;8.182;2023-07-31T04:45:32;1.30;;;1.20;;
21886;SDS011;11108;49.988;8.182;2023-07-31T04:47:57;1.57;;;1.43;;
21886;SDS011;11108;49.988;8.182;2023-07-31T04:50:22;1.90;;;1.80;;
21886;SDS011;11108;49.988;8.182;2023-07-31T04:52:48;1.70;;;1.60;;
21886;SDS011;11108;49.988;8.182;2023-07-31T04:55:13;1.67;;;1.57;;
21886;SDS011;11108;49.988;8.182;2023-07-31T04:57:38;2.10;;;1.90;;
21886;SDS011;11108;49.988;8.182;2023-07-31T05:00:03;1.93;;;1.67;;
21886;SDS011;11108;49.988;8.182;2023-07-31T05:02:29;3.13;;;1.90;;
21886;SDS011;11108;49.988;8.182;2023-07-31T05:04:54;1.70;;;1.60;;
21886;SDS011;11108;49.988;8.182;2023-07-31T05:07:19;2.30;;;1.73;;
21886;SDS011;11108;49.988;8.182;2023-07-31T05:09:44;2.90;;;1.50;;
21886;SDS011;11108;49.988;8.182;2023-07-31T05:12:10;1.37;;;1.27;;
21886;SDS011;11108;49.988;8.182;2023-07-31T05:14:35;1.93;;;1.83;;
21886;SDS011;11108;49.988;8.182;2023-07-31T05:17:00;2.27;;;1.70;;
21886;SDS011;11108;49.988;8.182;2023-07-31T05:19:25;1.80;;;1.70;;
21886;SDS011;11108;49.988;8.182;2023-07-31T05:21:50;1.60;;;1.50;;
21886;SDS011;11108;49.988;8.182;2023-07-31T05:24:16;1.97;;;1.67;;
21886;SDS011;11108;49.988;8.182;2023-07-31T05:26:41;1.93;;;1.80;;
21886;SDS011;11108;49.988;8.182;2023-07-31T05:29:06;1.80;;;1.70;;
21886;SDS011;11108;49.988;8.182;2023-07-31T05:31:31;1.50;;;1.40;;
21886;SDS011;11108;49.988;8.182;2023-07-31T05:33:57;2.57;;;2.00;;
21886;SDS011;11108;49.988;8.182;2023-07-31T05:36:22;1.90;;;1.80;;
21886;SDS011;11108;49.988;8.182;2023-07-31T05:38:48;2.20;;;1.50;;
21886;SDS011;11108;49.988;8.182;2023-07-31T05:41:13;2.30;;;1.70;;
21886;SDS011;11108;49.988;8.182;2023-07-31T05:43:38;2.53;;;2.00;;
21886;SDS011;11108;49.988;8.182;2023-07-31T05:46:03;3.93;;;1.60;;
21886;SDS011;11108;49.988;8.182;2023-07-31T05:48:28;2.27;;;2.10;;
21886;SDS011;11108;49.988;8.182;2023-07-31T05:50:54;3.47;;;1.47;;
21886;SDS011;11108;49.988;8.182;2023-07-31T05:53:19;1.97;;;1.60;;
21886;SDS011;11108;49.988;8.182;2023-07-31T05:55:44;1.70;;;1.60;;
21886;SDS011;11108;49.988;8.182;2023-07-31T05:58:09;1.90;;;1.63;;
21886;SDS011;11108;49.988;8.182;2023-07-31T06:00:34;2.93;;;1.60;;
21886;SDS011;11108;49.988;8.182;2023-07-31T06:03:00;1.70;;;1.60;;
21886;SDS011;11108;49.988;8.182;2023-07-31T06:05:25;1.80;;;1.70;;
21886;SDS011;11108;49.988;8.182;2023-07-31T06:07:51;2.63;;;1.70;;
21886;SDS011;11108;49.988;8.182;2023-07-31T06:10:16;2.77;;;1.80;;
21886;SDS011;11108;49.988;8.182;2023-07-31T06:12:41;2.17;;;1.77;;
21886;SDS011;11108;49.988;8.182;2023-07-31T06:15:06;2.03;;;1.83;;
21886;SDS011;11108;49.988;8.182;2023-07-31T06:17:32;1.80;;;1.70;;
21886;SDS011;11108;49.988;8.182;2023-07-31T06:19:57;1.93;;;1.70;;
21886;SDS011;11108;49.988;8.182;2023-07-31T06:22:22;3.00;;;2.10;;
21886;SDS011;11108;49.988;8.182;2023-07-31T06:24:47;2.30;;;1.70;;
21886;SDS011;11108;49.988;8.182;2023-07-31T06:27:13;2.00;;;1.80;;
21886;SDS011;11108;49.988;8.182;2023-07-31T06:29:38;1.70;;;1.60;;
21886;SDS011;11108;49.988;8.182;2023-07-31T06:32:03;2.47;;;1.70;;
21886;SDS011;11108;49.988;8.182;2023-07-31T06:34:28;2.83;;;1.97;;
21886;SDS011;11108;49.988;8.182;2023-07-31T06:36:54;2.00;;;1.80;;
21886;SDS011;11108;49.988;8.182;2023-07-31T06:39:20;2.20;;;2.00;;
21886;SDS011;11108;49.988;8.182;2023-07-31T06:41:45;1.83;;;1.70;;
21886;SDS011;11108;49.988;8.182;2023-07-31T06:44:10;1.83;;;1.73;;
21886;SDS011;11108;49.988;8.182;2023-07-31T06:46:35;3.67;;;1.90;;
21886;SDS011;11108;49.988;8.182;2023-07-31T06:49:01;2.53;;;1.70;;
21886;SDS011;11108;49.988;8.182;2023-07-31T06:51:26;2.87;;;1.70;;
21886;SDS011;11108;49.988;8.182;2023-07-31T06:53:51;1.70;;;1.60;;
21886;SDS011;11108;49.988;8.182;2023-07-31T06:56:16;2.07;;;1.97;;
21886;SDS011;11108;49.988;8.182;2023-07-31T06:58:42;2.17;;;1.97;;
21886;SDS011;11108;49.988;8.182;2023-07-31T07:01:07;1.73;;;1.63;;
21886;SDS011;11108;49.988;8.182;2023-07-31T07:03:32;3.27;;;2.07;;
21886;SDS011;11108;49.988;8.182;2023-07-31T07:05:57;3.43;;;2.30;;
21886;SDS011;11108;49.988;8.182;2023-07-31T07:08:23;1.70;;;1.60;;
21886;SDS011;11108;49.988;8.182;2023-07-31T07:10:48;2.00;;;1.80;;
21886;SDS011;11108;49.988;8.182;2023-07-31T07:13:14;2.17;;;1.90;;
21886;SDS011;11108;49.988;8.182;2023-07-31T07:15:39;2.15;;;1.95;;
21886;SDS011;11108;49.988;8.182;2023-07-31T07:18:04;2.40;;;1.90;;
21886;SDS011;11108;49.988;8.182;2023-07-31T07:20:29;2.80;;;1.83;;
21886;SDS011;11108;49.988;8.182;2023-07-31T07:22:54;2.37;;;2.20;;
21886;SDS011;11108;49.988;8.182;2023-07-31T07:25:20;2.87;;;2.00;;
21886;SDS011;11108;49.988;8.182;2023-07-31T07:27:45;3.07;;;2.00;;
21886;SDS011;11108;49.988;8.182;2023-07-31T07:30:10;2.23;;;2.07;;
21886;SDS011;11108;49.988;8.182;2023-07-31T07:32:35;2.60;;;1.83;;
21886;SDS011;11108;49.988;8.182;2023-07-31T07:35:01;2.37;;;2.17;;
21886;SDS011;11108;49.988;8.182;2023-07-31T07:37:26;2.40;;;2.17;;
21886;SDS011;11108;49.988;8.182;2023-07-31T07:39:51;3.10;;;2.00;;
21886;SDS011;11108;49.988;8.182;2023-07-31T07:42:17;3.60;;;2.23;;
21886;SDS011;11108;49.988;8.182;2023-07-31T07:44:43;2.67;;;1.97;;
21886;SDS011;11108;49.988;8.182;2023-07-31T07:47:08;2.60;;;2.20;;
21886;SDS011;11108;49.988;8.182;2023-07-31T07:49:34;2.77;;;2.20;;
21886;SDS011;11108;49.988;8.182;2023-07-31T07:51:59;2.93;;;2.63;;
21886;SDS011;11108;49.988;8.182;2023-07-31T07:54:25;2.97;;;2.20;;
21886;SDS011;11108;49.988;8.182;2023-07-31T07:56:50;2.53;;;2.00;;
21886;SDS011;11108;49.988;8.182;2023-07-31T07:59:15;3.10;;;2.20;;
21886;SDS011;11108;49.988;8.182;2023-07-31T08:01:40;2.23;;;2.03;;
21886;SDS011;11108;49.988;8.182;2023-07-31T08:04:06;2.17;;;1.97;;
21886;SDS011;11108;49.988;8.182;2023-07-31T08:06:31;2.67;;;2.20;;
21886;SDS011;11108;49.988;8.182;2023-07-31T08:08:56;2.47;;;2.20;;
21886;SDS011;11108;49.988;8.182;2023-07-31T08:11:21;1.90;;;1.80;;
21886;SDS011;11108;49.988;8.182;2023-07-31T08:13:48;2.33;;;2.13;;
21886;SDS011;11108;49.988;8.182;2023-07-31T08:16:13;2.40;;;2.20;;
21886;SDS011;11108;49.988;8.182;2023-07-31T08:18:38;2.37;;;2.10;;
21886;SDS011;11108;49.988;8.182;2023-07-31T08:21:05;2.83;;;2.00;;
21886;SDS011;11108;49.988;8.182;2023-07-31T08:23:30;2.93;;;2.00;;
21886;SDS011;11108;49.988;8.182;2023-07-31T08:25:55;3.27;;;2.40;;
21886;SDS011;11108;49.988;8.182;2023-07-31T08:28:21;2.17;;;1.97;;
21886;SDS011;11108;49.988;8.182;2023-07-31T08:30:46;2.73;;;2.17;;
21886;SDS011;11108;49.988;8.182;2023-07-31T08:33:11;3.27;;;2.13;;
21886;SDS011;11108;49.988;8.182;2023-07-31T08:35:36;3.07;;;2.10;;
21886;SDS011;11108;49.988;8.182;2023-07-31T08:38:01;2.30;;;2.10;;
21886;SDS011;11108;49.988;8.182;2023-07-31T08:40:27;2.20;;;2.00;;
21886;SDS011;11108;49.988;8.182;2023-07-31T08:42:54;3.23;;;2.20;;
21886;SDS011;11108;49.988;8.182;2023-07-31T08:45:19;2.73;;;1.97;;
21886;SDS011;11108;49.988;8.182;2023-07-31T08:47:47;4.20;;;2.10;;
21886;SDS011;11108;49.988;8.182;2023-07-31T08:50:13;2.40;;;2.10;;
21886;SDS011;11108;49.988;8.182;2023-07-31T08:52:39;2.20;;;2.00;;
21886;SDS011;11108;49.988;8.182;2023-07-31T08:55:05;2.10;;;2.00;;
21886;SDS011;11108;49.988;8.182;2023-07-31T08:57:30;3.53;;;2.53;;
21886;SDS011;11108;49.988;8.182;2023-07-31T08:59:56;1.97;;;1.83;;
21886;SDS011;11108;49.988;8.182;2023-07-31T09:02:22;2.17;;;1.97;;
21886;SDS011;11108;49.988;8.182;2023-07-31T09:04:48;2.70;;;2.10;;
21886;SDS011;11108;49.988;8.182;2023-07-31T09:07:14;2.40;;;2.20;;
21886;SDS011;11108;49.988;8.182;2023-07-31T09:09:40;2.20;;;2.00;;
21886;SDS011;11108;49.988;8.182;2023-07-31T09:12:05;2.37;;;2.17;;
21886;SDS011;11108;49.988;8.182;2023-07-31T09:14:31;2.40;;;1.97;;
21886;SDS011;11108;49.988;8.182;2023-07-31T09:16:57;2.90;;;2.10;;
21886;SDS011;11108;49.988;8.182;2023-07-31T09:19:29;3.53;;;2.43;;
21886;SDS011;11108;49.988;8.182;2023-07-31T09:21:54;3.73;;;2.20;;
21886;SDS011;11108;49.988;8.182;2023-07-31T09:24:26;3.63;;;2.07;;
21886;SDS011;11108;49.988;8.182;2023-07-31T09:26:53;2.07;;;1.70;;
21886;SDS011;11108;49.988;8.182;2023-07-31T09:29:18;3.90;;;2.20;;
21886;SDS011;11108;49.988;8.182;2023-07-31T09:31:44;2.40;;;2.20;;
21886;SDS011;11108;49.988;8.182;2023-07-31T09:34:10;2.53;;;2.33;;
21886;SDS011;11108;49.988;8.182;2023-07-31T09:36:45;3.20;;;2.43;;
21886;SDS011;11108;49.988;8.182;2023-07-31T09:39:10;1.90;;;1.80;;
21886;SDS011;11108;49.988;8.182;2023-07-31T09:41:37;1.80;;;1.70;;
21886;SDS011;11108;49.988;8.182;2023-07-31T09:44:03;1.70;;;1.60;;
21886;SDS011;11108;49.988;8.182;2023-07-31T09:46:28;3.53;;;2.20;;
21886;SDS011;11108;49.988;8.182;2023-07-31T09:49:02;2.20;;;2.03;;
21886;SDS011;11108;49.988;8.182;2023-07-31T09:51:27;3.13;;;2.10;;
21886;SDS011;11108;49.988;8.182;2023-07-31T09:53:53;2.97;;;2.27;;
21886;SDS011;11108;49.988;8.182;2023-07-31T09:56:18;2.50;;;2.30;;
21886;SDS011;11108;49.988;8.182;2023-07-31T09:58:46;2.00;;;1.90;;
21886;SDS011;11108;49.988;8.182;2023-07-31T10:01:11;1.70;;;1.60;;
21886;SDS011;11108;49.988;8.182;2023-07-31T10:03:38;4.03;;;2.40;;
21886;SDS011;11108;49.988;8.182;2023-07-31T10:06:03;3.00;;;2.00;;
21886;SDS011;11108;49.988;8.182;2023-07-31T10:08:30;2.33;;;2.13;;
21886;SDS011;11108;49.988;8.182;2023-07-31T10:10:55;2.93;;;2.13;;
21886;SDS011;11108;49.988;8.182;2023-07-31T10:13:22;2.37;;;1.93;;
21886;SDS011;11108;49.988;8.182;2023-07-31T10:15:47;2.40;;;2.20;;
21886;SDS011;11108;49.988;8.182;2023-07-31T10:18:13;2.40;;;1.80;;
21886;SDS011;11108;49.988;8.182;2023-07-31T10:20:38;2.53;;;2.27;;
21886;SDS011;11108;49.988;8.182;2023-07-31T10:23:03;1.97;;;1.80;;
21886;SDS011;11108;49.988;8.182;2023-07-31T10:25:29;2.87;;;2.23;;
21886;SDS011;11108;49.988;8.182;2023-07-31T10:27:55;2.03;;;1.93;;
21886;SDS011;11108;49.988;8.182;2023-07-31T10:30:22;2.33;;;1.80;;
21886;SDS011;11108;49.988;8.182;2023-07-31T10:32:49;2.43;;;1.97;;
21886;SDS011;11108;49.988;8.182;2023-07-31T10:35:16;3.15;;;2.50;;
21886;SDS011;11108;49.988;8.182;2023-07-31T10:37:42;2.63;;;2.43;;
21886;SDS011;11108;49.988;8.182;2023-07-31T10:40:18;3.57;;;2.43;;
21886;SDS011;11108;49.988;8.182;2023-07-31T10:42:50;2.43;;;2.20;;
21886;SDS011;11108;49.988;8.182;2023-07-31T10:45:32;2.13;;;2.03;;
21886;SDS011;11108;49.988;8.182;2023-07-31T10:47:58;2.80;;;2.43;;
21886;SDS011;11108;49.988;8.182;2023-07-31T10:50:25;2.23;;;2.10;;
21886;SDS011;11108;49.988;8.182;2023-07-31T10:52:51;2.43;;;2.23;;
21886;SDS011;11108;49.988;8.182;2023-07-31T10:57:46;3.10;;;2.17;;
21886;SDS011;11108;49.988;8.182;2023-07-31T11:02:55;2.37;;;2.10;;
21886;SDS011;11108;49.988;8.182;2023-07-31T11:05:20;2.30;;;2.10;;
21886;SDS011;11108;49.988;8.182;2023-07-31T11:07:48;2.47;;;2.23;;
21886;SDS011;11108;49.988;8.182;2023-07-31T11:10:15;2.30;;;2.10;;
21886;SDS011;11108;49.988;8.182;2023-07-31T11:12:40;3.47;;;2.23;;
21886;SDS011;11108;49.988;8.182;2023-07-31T11:15:06;2.50;;;2.30;;
21886;SDS011;11108;49.988;8.182;2023-07-31T11:17:31;3.03;;;2.43;;
21886;SDS011;11108;49.988;8.182;2023-07-31T11:19:56;2.83;;;2.20;;
21886;SDS011;11108;49.988;8.182;2023-07-31T11:22:22;3.47;;;2.20;;
21886;SDS011;11108;49.988;8.182;2023-07-31T11:24:47;2.10;;;2.00;;
21886;SDS011;11108;49.988;8.182;2023-07-31T11:27:12;2.73;;;2.53;;
21886;SDS011;11108;49.988;8.182;2023-07-31T11:29:37;2.23;;;2.03;;
21886;SDS011;11108;49.988;8.182;2023-07-31T11:32:02;2.70;;;2.50;;
21886;SDS011;11108;49.988;8.182;2023-07-31T11:34:28;2.70;;;2.50;;
21886;SDS011;11108;49.988;8.182;2023-07-31T11:36:53;2.80;;;2.20;;
21886;SDS011;11108;49.988;8.182;2023-07-31T11:39:19;2.17;;;2.07;;
21886;SDS011;11108;49.988;8.182;2023-07-31T11:41:45;3.42;;;2.47;;
21886;SDS011;11108;49.988;8.182;2023-07-31T11:44:10;2.40;;;2.20;;
21886;SDS011;11108;49.988;8.182;2023-07-31T11:46:35;2.50;;;2.17;;
21886;SDS011;11108;49.988;8.182;2023-07-31T11:49:00;2.70;;;2.50;;
21886;SDS011;11108;49.988;8.182;2023-07-31T11:51:26;2.60;;;2.40;;
21886;SDS011;11108;49.988;8.182;2023-07-31T11:53:53;2.88;;;2.55;;
21886;SDS011;11108;49.988;8.182;2023-07-31T11:56:20;2.67;;;2.43;;
21886;SDS011;11108;49.988;8.182;2023-07-31T11:58:46;2.73;;;2.33;;
21886;SDS011;11108;49.988;8.182;2023-07-31T12:01:12;3.30;;;3.00;;
21886;SDS011;11108;49.988;8.182;2023-07-31T12:03:38;2.83;;;2.63;;
21886;SDS011;11108;49.988;8.182;2023-07-31T12:06:04;5.57;;;2.47;;
21886;SDS011;11108;49.988;8.182;2023-07-31T12:08:29;2.95;;;2.70;;
21886;SDS011;11108;49.988;8.182;2023-07-31T12:10:54;2.50;;;2.30;;
21886;SDS011;11108;49.988;8.182;2023-07-31T12:13:27;3.37;;;2.30;;
21886;SDS011;11108;49.988;8.182;2023-07-31T12:15:56;3.27;;;2.80;;
21886;SDS011;11108;49.988;8.182;2023-07-31T12:18:22;2.80;;;2.50;;
21886;SDS011;11108;49.988;8.182;2023-07-31T12:20:49;4.27;;;2.53;;
21886;SDS011;11108;49.988;8.182;2023-07-31T12:23:19;2.30;;;2.10;;
21886;SDS011;11108;49.988;8.182;2023-07-31T12:25:54;3.17;;;2.40;;
21886;SDS011;11108;49.988;8.182;2023-07-31T12:28:25;2.90;;;2.40;;
21886;SDS011;11108;49.988;8.182;2023-07-31T12:30:50;2.67;;;2.30;;
21886;SDS011;11108;49.988;8.182;2023-07-31T12:33:16;2.50;;;2.30;;
21886;SDS011;11108;49.988;8.182;2023-07-31T12:35:44;4.80;;;2.53;;
21886;SDS011;11108;49.988;8.182;2023-07-31T12:38:10;2.47;;;2.00;;
21886;SDS011;11108;49.988;8.182;2023-07-31T12:40:37;2.27;;;2.10;;
21886;SDS011;11108;49.988;8.182;2023-07-31T12:43:02;3.27;;;1.97;;
21886;SDS011;11108;49.988;8.182;2023-07-31T12:45:28;2.60;;;2.40;;
21886;SDS011;11108;49.988;8.182;2023-07-31T12:47:55;2.30;;;2.10;;
21886;SDS011;11108;49.988;8.182;2023-07-31T12:50:20;2.57;;;2.37;;
21886;SDS011;11108;49.988;8.182;2023-07-31T12:52:45;3.63;;;2.77;;
21886;SDS011;11108;49.988;8.182;2023-07-31T12:55:10;4.10;;;2.50;;
21886;SDS011;11108;49.988;8.182;2023-07-31T12:57:36;2.83;;;2.33;;
21886;SDS011;11108;49.988;8.182;2023-07-31T13:00:01;2.53;;;2.17;;
21886;SDS011;11108;49.988;8.182;2023-07-31T13:02:26;2.93;;;2.47;;
21886;SDS011;11108;49.988;8.182;2023-07-31T13:04:52;2.80;;;2.60;;
21886;SDS011;11108;49.988;8.182;2023-07-31T13:07:19;5.03;;;2.70;;
21886;SDS011;11108;49.988;8.182;2023-07-31T13:09:44;2.77;;;2.30;;
21886;SDS011;11108;49.988;8.182;2023-07-31T13:12:09;2.50;;;2.30;;
21886;SDS011;11108;49.988;8.182;2023-07-31T13:14:34;2.27;;;2.17;;
21886;SDS011;11108;49.988;8.182;2023-07-31T13:17:00;3.20;;;2.40;;
21886;SDS011;11108;49.988;8.182;2023-07-31T13:19:25;2.40;;;2.20;;
21886;SDS011;11108;49.988;8.182;2023-07-31T13:21:50;2.33;;;2.13;;
21886;SDS011;11108;49.988;8.182;2023-07-31T13:24:15;2.40;;;2.20;;
21886;SDS011;11108;49.988;8.182;2023-07-31T13:26:40;2.73;;;2.50;;
21886;SDS011;11108;49.988;8.182;2023-07-31T13:29:06;2.50;;;2.30;;
21886;SDS011;11108;49.988;8.182;2023-07-31T13:31:31;2.60;;;2.40;;
21886;SDS011;11108;49.988;8.182;2023-07-31T13:33:56;2.50;;;2.30;;
21886;SDS011;11108;49.988;8.182;2023-07-31T13:36:21;2.47;;;2.27;;
21886;SDS011;11108;49.988;8.182;2023-07-31T13:38:46;2.87;;;2.67;;
21886;SDS011;11108;49.988;8.182;2023-07-31T13:41:12;2.80;;;2.20;;
21886;SDS011;11108;49.988;8.182;2023-07-31T13:43:37;3.77;;;2.50;;
21886;SDS011;11108;49.988;8.182;2023-07-31T13:46:02;2.40;;;2.20;;
21886;SDS011;11108;49.988;8.182;2023-07-31T13:48:31;3.47;;;2.43;;
21886;SDS011;11108;49.988;8.182;2023-07-31T13:50:57;2.37;;;2.20;;
21886;SDS011;11108;49.988;8.182;2023-07-31T13:53:22;1.73;;;1.63;;
21886;SDS011;11108;49.988;8.182;2023-07-31T13:55:47;2.83;;;2.23;;
21886;SDS011;11108;49.988;8.182;2023-07-31T13:58:14;2.00;;;1.80;;
21886;SDS011;11108;49.988;8.182;2023-07-31T14:00:39;2.27;;;2.17;;
21886;SDS011;11108;49.988;8.182;2023-07-31T14:03:04;2.93;;;2.33;;
21886;SDS011;11108;49.988;8.182;2023-07-31T14:05:29;2.57;;;2.37;;
21886;SDS011;11108;49.988;8.182;2023-07-31T14:07:55;2.53;;;2.33;;
21886;SDS011;11108;49.988;8.182;2023-07-31T14:10:20;2.77;;;2.50;;
21886;SDS011;11108;49.988;8.182;2023-07-31T14:12:45;2.33;;;2.13;;
21886;SDS011;11108;49.988;8.182;2023-07-31T14:15:10;2.23;;;1.97;;
21886;SDS011;11108;49.988;8.182;2023-07-31T14:17:36;2.57;;;2.10;;
21886;SDS011;11108;49.988;8.182;2023-07-31T14:20:01;2.07;;;1.97;;
21886;SDS011;11108;49.988;8.182;2023-07-31T14:22:27;2.50;;;2.23;;
21886;SDS011;11108;49.988;8.182;2023-07-31T14:24:53;5.20;;;2.70;;
21886;SDS011;11108;49.988;8.182;2023-07-31T14:27:18;2.63;;;2.37;;
21886;SDS011;11108;49.988;8.182;2023-07-31T14:29:43;3.63;;;2.50;;
21886;SDS011;11108;49.988;8.182;2023-07-31T14:32:08;3.17;;;2.33;;
21886;SDS011;11108;49.988;8.182;2023-07-31T14:34:34;2.43;;;2.27;;
21886;SDS011;11108;49.988;8.182;2023-07-31T14:36:59;2.63;;;2.30;;
21886;SDS011;11108;49.988;8.182;2023-07-31T14:39:24;2.63;;;2.43;;
21886;SDS011;11108;49.988;8.182;2023-07-31T14:41:49;2.83;;;2.30;;
21886;SDS011;11108;49.988;8.182;2023-07-31T14:44:14;2.17;;;2.00;;
21886;SDS011;11108;49.988;8.182;2023-07-31T14:46:40;2.57;;;2.23;;
21886;SDS011;11108;49.988;8.182;2023-07-31T14:49:05;2.85;;;2.55;;
21886;SDS011;11108;49.988;8.182;2023-07-31T14:51:30;2.17;;;2.07;;
21886;SDS011;11108;49.988;8.182;2023-07-31T14:53:55;3.63;;;2.10;;